Time;durP1;ratioP1;P1;durP2;ratioP2;P2;SDS_P1;SDS_P2;PMS_P1;PMS_P2;Temp;Humidity;BMP_temperature;BMP_pressure;BME280_temperature;BME280_humidity;BME280_pressure;Samples;Min_cycle;Max_cycle;Signal;HPM_P1;HPM_P2
2021/12/17 00:02:45;;;;;;;32.40;12.15;;;;;;;4.40;74.44;103345.00;5046220;28;20472;-66
2021/12/17 00:05:01;;;;;;;39.78;11.60;;;;;;;4.40;74.67;103340.66;5038115;28;20053;-65
2021/12/17 00:07:30;;;;;;;24.40;9.70;;;;;;;4.22;74.54;103336.91;5043383;28;20140;-65
2021/12/17 00:10:00;;;;;;;49.17;13.90;;;;;;;4.09;75.85;103329.78;5044593;28;20529;-65
2021/12/17 00:12:28;;;;;;;36.42;13.15;;;;;;;4.29;75.70;103316.25;5043382;28;20301;-65
2021/12/17 00:14:54;;;;;;;46.25;14.02;;;;;;;4.29;76.65;103320.56;5043212;28;20463;-65
2021/12/17 00:17:28;;;;;;;52.55;16.80;;;;;;;4.61;77.01;103321.94;5041954;28;20048;-65
2021/12/17 00:20:24;;;;;;;46.03;15.00;;;;;;;4.70;77.74;103326.38;5043903;28;20051;-65
2021/12/17 00:50:57;;;;;;;53.45;16.10;;;;;;;5.19;78.38;103320.06;5042076;28;20082;-66
2021/12/17 00:53:26;;;;;;;54.03;16.00;;;;;;;5.32;77.44;103320.22;5042989;28;20655;-66
2021/12/17 00:55:52;;;;;;;42.92;15.00;;;;;;;5.56;76.71;103323.94;5036583;28;20072;-66
2021/12/17 00:58:19;;;;;;;54.17;17.30;;;;;;;5.68;76.46;103337.97;5032466;28;20765;-66
2021/12/17 01:00:47;;;;;;;57.13;17.63;;;;;;;5.77;75.13;103343.25;5030016;28;20080;-66
2021/12/17 01:03:13;;;;;;;41.78;14.25;;;;;;;5.81;75.09;103350.22;5044051;28;20070;-65
2021/12/17 01:05:42;;;;;;;43.55;15.82;;;;;;;5.86;74.04;103350.31;5043237;28;20092;-65
2021/12/17 01:08:08;;;;;;;37.97;14.15;;;;;;;5.60;74.70;103356.94;5043936;28;20045;-65
2021/12/17 01:10:39;;;;;;;43.65;14.48;;;;;;;5.18;75.37;103347.81;5042873;28;20138;-65
2021/12/17 01:13:07;;;;;;;40.30;14.50;;;;;;;5.00;76.51;103351.91;5043561;28;20098;-65
2021/12/17 01:15:35;;;;;;;41.00;13.82;;;;;;;5.08;75.72;103350.28;5041261;28;20567;-65
2021/12/17 01:18:07;;;;;;;39.60;13.45;;;;;;;4.97;75.33;103357.06;5041307;28;20053;-66
2021/12/17 01:20:54;;;;;;;38.70;13.45;;;;;;;4.93;75.28;103355.28;5041891;28;20111;-66
2021/12/17 01:23:48;;;;;;;33.92;12.88;;;;;;;5.03;74.32;103362.34;5043387;28;20045;-66
2021/12/17 01:38:20;;;;;;;57.70;17.17;;;;;;;5.11;75.55;103365.91;5047320;28;20134;-66
2021/12/17 01:42:56;;;;;;;43.30;15.07;;;;;;;5.13;75.42;103378.09;5027289;28;20052;-66
2021/12/17 01:45:28;;;;;;;47.63;15.25;;;;;;;5.02;75.60;103381.41;5046437;28;20828;-66
2021/12/17 01:47:54;;;;;;;45.65;14.45;;;;;;;4.89;76.18;103382.97;5046512;28;20397;-66
2021/12/17 01:56:01;;;;;;;54.67;15.30;;;;;;;4.39;78.51;103371.84;5027167;28;20072;-66
2021/12/17 02:01:11;;;;;;;70.97;18.70;;;;;;;4.88;78.28;103363.88;5047222;28;20182;-66
2021/12/17 02:03:38;;;;;;;91.70;23.30;;;;;;;5.04;79.70;103377.09;5045799;28;20508;-66
2021/12/17 02:06:05;;;;;;;87.28;22.30;;;;;;;5.27;79.46;103384.34;5046526;28;20110;-66
2021/12/17 02:08:32;;;;;;;86.45;22.52;;;;;;;5.62;78.50;103382.13;5042503;28;20093;-66
2021/12/17 02:30:37;;;;;;;68.40;18.20;;;;;;;5.87;77.33;103393.72;5046525;28;20056;-69
2021/12/17 02:33:03;;;;;;;55.03;16.27;;;;;;;5.87;77.41;103378.94;5048387;28;20144;-69
2021/12/17 02:35:34;;;;;;;69.05;19.02;;;;;;;5.62;78.10;103376.03;5046164;28;20163;-68
2021/12/17 02:38:03;;;;;;;59.78;18.42;;;;;;;5.63;78.13;103368.25;5047454;28;20532;-68
2021/12/17 02:45:57;;;;;;;62.83;18.88;;;;;;;5.77;78.15;103365.78;5044145;28;20098;-68
2021/12/17 02:48:24;;;;;;;85.65;20.02;;;;;;;5.80;78.56;103361.50;5046751;28;20454;-68
2021/12/17 02:50:54;;;;;;;76.00;20.67;;;;;;;5.88;78.42;103366.81;5046706;28;20118;-68
2021/12/17 02:53:23;;;;;;;84.80;20.35;;;;;;;5.55;79.66;103351.69;5047850;28;20090;-68
2021/12/17 02:55:53;;;;;;;60.67;18.42;;;;;;;5.72;80.07;103336.25;5046394;28;20083;-68
2021/12/17 02:58:22;;;;;;;66.53;20.02;;;;;;;5.80;79.95;103329.41;5047244;28;20467;-68
2021/12/17 03:00:48;;;;;;;63.83;19.25;;;;;;;6.18;78.31;103328.00;5043868;28;20049;-68
2021/12/17 03:03:17;;;;;;;66.50;19.45;;;;;;;6.20;78.85;103325.41;5046656;28;20467;-67
2021/12/17 03:05:43;;;;;;;55.80;17.40;;;;;;;6.48;77.32;103334.28;5045810;28;20126;-67
2021/12/17 03:08:14;;;;;;;73.55;20.08;;;;;;;6.15;79.33;103333.19;5047396;28;20474;-67
2021/12/17 03:10:43;;;;;;;67.25;18.77;;;;;;;6.46;78.14;103344.72;5046229;28;20408;-67
2021/12/17 03:13:11;;;;;;;52.20;18.42;;;;;;;6.50;77.90;103343.88;5047000;28;20049;-67
2021/12/17 03:15:43;;;;;;;62.78;18.17;;;;;;;6.67;77.01;103352.66;5046681;28;20041;-67
2021/12/17 03:23:41;;;;;;;65.78;19.52;;;;;;;6.59;76.78;103346.53;5043189;28;20052;-67
2021/12/17 03:26:10;;;;;;;56.95;18.58;;;;;;;6.51;76.81;103348.22;5042230;28;20139;-67
2021/12/17 03:28:39;;;;;;;54.90;18.60;;;;;;;6.62;76.14;103345.66;5046530;28;20072;-67
2021/12/17 03:31:05;;;;;;;54.63;17.90;;;;;;;6.34;77.14;103355.06;5044975;28;20076;-67
2021/12/17 03:33:33;;;;;;;64.55;19.63;;;;;;;6.06;78.65;103358.31;5045118;28;20480;-67
2021/12/17 03:35:59;;;;;;;57.60;18.58;;;;;;;6.25;78.21;103348.03;5040858;28;20136;-67
2021/12/17 03:38:27;;;;;;;86.38;20.58;;;;;;;6.31;77.91;103345.50;5042857;28;20076;-67
2021/12/17 03:41:05;;;;;;;57.17;18.42;;;;;;;6.45;77.43;103345.56;5044387;28;20107;-67
2021/12/17 03:43:33;;;;;;;63.90;20.20;;;;;;;6.51;78.08;103343.00;5047709;28;21313;-67
2021/12/17 03:45:59;;;;;;;61.67;18.50;;;;;;;6.57;77.74;103342.19;5044522;28;20047;-67
2021/12/17 03:48:29;;;;;;;74.40;19.23;;;;;;;6.64;77.72;103339.63;5047722;28;20640;-67
2021/12/17 03:50:55;;;;;;;69.10;18.77;;;;;;;6.61;78.22;103339.59;5047742;28;20049;-67
2021/12/17 03:53:21;;;;;;;60.45;20.90;;;;;;;6.65;77.93;103343.94;5032223;28;20045;-67
2021/12/17 03:55:49;;;;;;;65.38;20.67;;;;;;;6.49;79.35;103333.44;5028599;28;20073;-67
2021/12/17 03:58:17;;;;;;;60.35;20.98;;;;;;;6.72;79.10;103332.72;5028097;28;20045;-67
2021/12/17 04:00:45;;;;;;;65.07;20.08;;;;;;;6.88;78.50;103327.56;5043485;28;20473;-67
2021/12/17 04:03:11;;;;;;;74.82;20.88;;;;;;;6.78;78.61;103331.88;5048573;28;20052;-67
2021/12/17 04:05:38;;;;;;;64.22;19.48;;;;;;;6.72;79.26;103337.94;5047854;28;20471;-67
2021/12/17 04:08:05;;;;;;;58.03;19.58;;;;;;;7.00;78.07;103333.72;5047312;28;20608;-67
2021/12/17 04:10:40;;;;;;;63.95;20.67;;;;;;;7.15;78.05;103338.13;5047005;28;20064;-67
2021/12/17 04:13:24;;;;;;;65.93;21.30;;;;;;;7.30;76.68;103335.56;5046927;28;20045;-67
2021/12/17 04:15:56;;;;;;;67.28;21.98;;;;;;;6.97;78.31;103325.00;5041306;28;20052;-67
2021/12/17 04:18:23;;;;;;;62.10;21.67;;;;;;;7.02;78.25;103331.97;5042395;28;20049;-67
2021/12/17 04:20:49;;;;;;;58.00;20.70;;;;;;;7.12;77.76;103319.84;5032303;28;20095;-67
2021/12/17 04:23:15;;;;;;;63.80;20.13;;;;;;;7.20;77.57;103318.13;5047034;28;20134;-67
2021/12/17 04:25:42;;;;;;;62.65;19.67;;;;;;;7.05;78.53;103321.56;5048846;28;20045;-67
2021/12/17 04:28:09;;;;;;;56.85;19.33;;;;;;;7.34;77.15;103327.75;5047637;28;20049;-67
2021/12/17 04:30:37;;;;;;;59.75;20.10;;;;;;;7.43;77.54;103329.50;5047482;28;20053;-67
2021/12/17 04:33:06;;;;;;;51.58;18.40;;;;;;;7.39;76.59;103327.75;5047216;28;20041;-67
2021/12/17 04:35:32;;;;;;;61.28;22.13;;;;;;;7.26;77.75;103331.19;5048011;28;20048;-67
2021/12/17 04:37:59;;;;;;;57.08;20.98;;;;;;;7.15;78.19;103330.28;5044224;28;20044;-67
2021/12/17 04:40:27;;;;;;;60.42;21.02;;;;;;;7.37;77.47;103326.88;5040502;28;20110;-67
2021/12/17 04:43:00;;;;;;;64.82;20.60;;;;;;;7.41;77.88;103330.38;5047694;28;20497;-67
2021/12/17 04:45:27;;;;;;;65.30;21.00;;;;;;;7.58;77.09;103323.44;5048371;28;20580;-67
2021/12/17 04:59:07;;;;;;;50.10;18.55;;;;;;;7.71;76.88;103328.69;5019490;28;20334;-67
2021/12/17 05:01:33;;;;;;;44.97;17.75;;;;;;;7.62;76.85;103327.78;5051622;28;20048;-67
2021/12/17 05:04:00;;;;;;;54.85;19.77;;;;;;;7.62;77.04;103327.78;5051162;28;20044;-67
2021/12/17 05:06:29;;;;;;;54.30;19.33;;;;;;;7.71;76.75;103326.09;5048923;28;20052;-67
2021/12/17 05:09:01;;;;;;;48.60;18.00;;;;;;;7.96;75.66;103326.09;5051641;28;20445;-66
2021/12/17 05:18:11;;;;;;;46.65;17.40;;;;;;;7.27;78.23;103323.38;5049585;28;20083;-66
2021/12/17 05:19:46;;;;;;;44.45;17.15;;;;;;;7.51;77.27;103343.44;5051223;28;20056;-66
2021/12/17 05:22:14;;;;;;;43.33;17.10;;;;;;;7.53;77.36;103338.25;5047550;28;20111;-66
2021/12/17 05:24:41;;;;;;;53.92;18.42;;;;;;;7.59;76.93;103340.84;5048844;28;20056;-66
2021/12/17 05:27:07;;;;;;;38.28;15.40;;;;;;;7.76;76.36;103339.16;5051506;28;20072;-67
2021/12/17 05:29:34;;;;;;;41.88;16.35;;;;;;;7.78;76.20;103340.88;5050789;28;20378;-67
2021/12/17 05:32:00;;;;;;;34.40;15.05;;;;;;;7.92;75.69;103348.72;5051954;28;20566;-67
2021/12/17 05:34:26;;;;;;;36.67;15.88;;;;;;;7.98;75.62;103347.88;5049689;28;20525;-66
2021/12/17 05:36:53;;;;;;;37.92;15.13;;;;;;;8.14;74.46;103353.09;5050018;28;20065;-67
2021/12/17 05:39:20;;;;;;;41.35;16.13;;;;;;;8.14;74.96;103342.63;5051334;28;20095;-67
2021/12/17 05:41:47;;;;;;;39.00;14.50;;;;;;;7.97;75.46;103348.75;5050548;28;20068;-67
2021/12/17 05:44:14;;;;;;;38.90;14.20;;;;;;;7.61;76.43;103341.75;5050382;28;20072;-67
2021/12/17 05:46:49;;;;;;;31.58;13.98;;;;;;;7.39;77.39;103346.00;5031343;28;20049;-67
2021/12/17 05:49:16;;;;;;;39.88;15.50;;;;;;;7.85;76.11;103336.53;5034743;28;20049;-67
2021/12/17 05:51:42;;;;;;;37.08;15.32;;;;;;;7.95;75.47;103329.56;5051295;28;20048;-67
2021/12/17 05:54:09;;;;;;;39.78;15.73;;;;;;;7.83;75.69;103325.22;5046249;28;20064;-67
2021/12/17 05:56:36;;;;;;;36.50;15.05;;;;;;;7.57;76.36;103322.59;5051098;28;20068;-67
2021/12/17 05:59:03;;;;;;;34.33;14.25;;;;;;;7.67;76.24;103328.69;5051137;28;20069;-67
2021/12/17 06:01:29;;;;;;;37.05;15.63;;;;;;;7.73;75.77;103334.78;5049851;28;20049;-67
2021/12/17 06:03:55;;;;;;;32.90;14.18;;;;;;;7.89;75.46;103330.44;5050974;28;20045;-66
2021/12/17 06:06:27;;;;;;;34.38;14.88;;;;;;;7.71;75.78;103325.22;5048867;28;20040;-66
2021/12/17 06:08:53;;;;;;;;;;;;;;;7.35;76.89;103316.41;5048558;28;20399;-66
2021/12/17 06:11:19;;;;;;;32.65;13.35;;;;;;;7.67;76.07;103321.72;5049676;28;19943;-67
2021/12/17 06:13:47;;;;;;;36.33;13.73;;;;;;;7.59;75.89;103319.97;5049254;28;20095;-67
2021/12/17 06:16:13;;;;;;;34.20;14.60;;;;;;;7.92;74.29;103327.81;5050165;28;20064;-67
2021/12/17 06:18:40;;;;;;;42.95;14.13;;;;;;;7.91;74.75;103327.84;5049405;28;20053;-67
2021/12/17 06:21:06;;;;;;;41.58;14.55;;;;;;;7.84;74.77;103332.16;5050520;28;20049;-67
2021/12/17 06:23:32;;;;;;;35.03;14.20;;;;;;;8.06;74.10;103333.03;5049094;28;20489;-67
2021/12/17 06:25:59;;;;;;;35.55;14.60;;;;;;;8.12;73.66;103330.44;5048926;28;20044;-67
2021/12/17 06:28:25;;;;;;;40.20;15.18;;;;;;;7.82;73.96;103334.81;5051251;28;20068;-67
2021/12/17 06:30:53;;;;;;;34.08;14.85;;;;;;;7.76;74.52;103339.16;5032493;28;20203;-67
2021/12/17 06:33:19;;;;;;;30.48;13.15;;;;;;;7.65;74.98;103336.50;5050366;28;20126;-67
2021/12/17 06:35:45;;;;;;;35.05;14.52;;;;;;;7.64;74.43;103333.91;5049011;28;20107;-67
2021/12/17 06:38:12;;;;;;;27.67;13.75;;;;;;;7.60;74.09;103335.63;5048909;28;20057;-67
2021/12/17 06:40:38;;;;;;;30.63;14.48;;;;;;;7.87;73.13;103332.16;5049536;28;20406;-67
2021/12/17 06:43:04;;;;;;;40.30;14.32;;;;;;;7.80;72.64;103319.97;5049874;28;20087;-67
2021/12/17 06:45:45;;;;;;;30.48;14.38;;;;;;;7.70;72.80;103319.09;5048022;28;20455;-67
2021/12/17 06:48:14;;;;;;;36.08;14.13;;;;;;;7.49;72.97;103313.88;5049321;28;20136;-67
2021/12/17 06:59:04;;;;;;;40.72;15.77;;;;;;;7.35;73.45;103326.88;5047669;28;20076;-66
2021/12/17 07:08:04;;;;;;;40.85;15.15;;;;;;;7.49;72.78;103337.34;5044210;28;20563;-64
2021/12/17 07:10:27;;;;;;;40.47;14.93;;;;;;;7.24;73.57;103322.50;5037160;28;20052;-65
2021/12/17 07:21:28;;;;;;;35.45;14.95;;;;;;;7.19;72.95;103348.56;5024672;28;20043;-64
2021/12/17 07:34:50;;;;;;;27.20;12.05;;;;;;;6.76;72.16;103355.31;5031896;28;20485;-65
2021/12/17 07:40:02;;;;;;;39.17;15.02;;;;;;;6.41;73.75;103351.63;5046821;28;20087;-66
2021/12/17 07:42:29;;;;;;;41.17;15.32;;;;;;;6.49;73.73;103355.16;5048573;28;20045;-66
2021/12/17 07:44:56;;;;;;;47.15;17.40;;;;;;;6.49;73.58;103355.16;5042150;28;20045;-66
2021/12/17 07:47:22;;;;;;;47.22;17.05;;;;;;;6.49;74.13;103355.16;5043820;28;20049;-66
2021/12/17 07:49:48;;;;;;;34.72;13.60;;;;;;;6.54;73.31;103358.66;5046587;28;20111;-67
2021/12/17 07:52:15;;;;;;;34.53;15.00;;;;;;;6.51;72.16;103357.75;5048800;28;20106;-66
2021/12/17 07:54:42;;;;;;;40.88;13.52;;;;;;;6.25;73.80;103352.34;5044177;28;20114;-66
2021/12/17 07:57:09;;;;;;;41.80;14.57;;;;;;;6.17;74.40;103367.09;5047445;28;20104;-66
2021/12/17 07:59:36;;;;;;;36.92;14.40;;;;;;;6.21;74.46;103376.63;5047305;28;20503;-66
2021/12/17 08:02:03;;;;;;;39.13;14.77;;;;;;;6.28;74.78;103370.66;5048342;28;20689;-66
2021/12/17 08:04:29;;;;;;;40.60;15.45;;;;;;;6.39;74.92;103374.22;5042111;28;20057;-67
2021/12/17 08:06:56;;;;;;;40.97;17.00;;;;;;;6.51;74.98;103371.66;5046953;28;20523;-66
2021/12/17 08:09:24;;;;;;;49.60;19.25;;;;;;;6.49;75.76;103372.53;5045669;28;20045;-66
2021/12/17 08:11:55;;;;;;;51.35;17.73;;;;;;;6.50;76.42;103380.38;5048985;28;20065;-66
2021/12/17 08:14:22;;;;;;;59.45;18.90;;;;;;;6.66;75.89;103383.94;5045704;28;20128;-66
2021/12/17 08:17:00;;;;;;;53.33;17.50;;;;;;;6.95;75.00;103391.94;5048642;28;20044;-66
2021/12/17 08:24:58;;;;;;;65.30;21.15;;;;;;;7.32;76.34;103362.53;5044227;28;20102;-66
2021/12/17 08:27:31;;;;;;;70.28;21.77;;;;;;;7.35;76.98;103362.56;5043535;28;20037;-66
2021/12/17 08:30:20;;;;;;;87.45;23.30;;;;;;;7.37;77.50;103350.38;5039919;28;20067;-66
2021/12/17 08:32:47;;;;;;;71.13;21.92;;;;;;;7.76;77.27;103355.66;5042843;28;20065;-66
2021/12/17 08:35:14;;;;;;;71.53;23.10;;;;;;;7.83;76.87;103353.97;5050780;28;20047;-66
2021/12/17 08:37:41;;;;;;;71.03;22.52;;;;;;;7.97;76.37;103346.13;5047087;28;20122;-66
2021/12/17 08:40:09;;;;;;;66.63;21.45;;;;;;;7.91;76.57;103343.53;5050216;28;20037;-66
2021/12/17 08:42:36;;;;;;;59.90;20.98;;;;;;;7.69;76.84;103342.59;5051864;28;20053;-66
2021/12/17 08:45:03;;;;;;;61.25;20.92;;;;;;;8.12;75.59;103348.75;5051318;28;20056;-66
2021/12/17 08:47:30;;;;;;;55.13;21.10;;;;;;;7.91;75.64;103353.97;5033897;28;20060;-66
2021/12/17 08:50:00;;;;;;;68.10;21.92;;;;;;;7.94;75.64;103356.59;5052127;28;20115;-66
2021/12/17 08:52:27;;;;;;;56.53;20.38;;;;;;;8.20;75.59;103347.84;5051285;28;20520;-66
2021/12/17 08:54:53;;;;;;;52.88;18.80;;;;;;;8.22;75.71;103340.91;5052164;28;20049;-66
2021/12/17 08:57:20;;;;;;;47.75;18.98;;;;;;;8.07;76.01;103345.25;5050661;28;20134;-66
2021/12/17 08:59:47;;;;;;;63.25;19.35;;;;;;;8.08;76.20;103347.00;5052892;28;20555;-66
2021/12/17 09:02:14;;;;;;;54.28;17.80;;;;;;;8.17;76.75;103346.97;5050565;28;20087;-66
2021/12/17 09:04:40;;;;;;;39.50;14.50;;;;;;;8.41;76.34;103347.00;5040783;28;20053;-66
2021/12/17 09:07:07;;;;;;;42.92;15.60;;;;;;;9.04;76.53;103358.19;5050506;28;20501;-66
2021/12/17 09:09:33;;;;;;;30.50;11.75;;;;;;;9.24;74.53;103354.59;5051407;28;20044;-66
2021/12/17 09:12:00;;;;;;;18.83;8.05;;;;;;;9.07;73.08;103363.41;5050268;28;20045;-66
2021/12/17 09:14:28;;;;;;;20.20;8.63;;;;;;;9.02;75.10;103370.38;5049744;28;20077;-66
2021/12/17 09:16:56;;;;;;;18.67;8.70;;;;;;;9.42;73.50;103366.75;5051264;28;20059;-66
2021/12/17 09:19:23;;;;;;;18.00;7.30;;;;;;;9.32;73.03;103370.28;5045774;28;20060;-66
2021/12/17 09:21:49;;;;;;;19.23;7.85;;;;;;;9.40;73.07;103370.22;5051501;28;20073;-67
2021/12/17 09:24:16;;;;;;;19.02;7.28;;;;;;;9.23;73.73;103372.94;5045344;28;20044;-67
2021/12/17 09:26:42;;;;;;;15.60;7.63;;;;;;;9.07;73.65;103376.50;5032166;28;20490;-66
2021/12/17 09:29:08;;;;;;;20.38;7.55;;;;;;;8.71;75.12;103365.28;5036223;28;20053;-66
2021/12/17 09:31:36;;;;;;;17.40;7.72;;;;;;;9.02;74.16;103373.00;5050724;28;20070;-67
2021/12/17 09:34:04;;;;;;;18.40;7.18;;;;;;;9.08;74.26;103384.34;5048918;28;20048;-67
2021/12/17 09:36:30;;;;;;;18.85;7.28;;;;;;;9.22;74.32;103379.06;5050578;28;20072;-67
2021/12/17 09:38:57;;;;;;;18.38;6.85;;;;;;;9.09;74.14;103380.00;5051510;28;20073;-67
2021/12/17 09:41:26;;;;;;;17.00;7.00;;;;;;;8.77;75.08;103370.47;5044476;28;20119;-67
2021/12/17 09:43:53;;;;;;;12.68;5.82;;;;;;;8.93;75.56;103373.06;5045746;28;20049;-67
2021/12/17 09:46:20;;;;;;;13.00;5.78;;;;;;;9.10;74.62;103382.59;5050174;28;20099;-67
2021/12/17 09:48:48;;;;;;;18.80;6.68;;;;;;;8.79;75.18;103387.03;5050564;28;20118;-67
2021/12/17 09:51:18;;;;;;;14.75;5.50;;;;;;;8.68;75.87;103383.56;5049070;28;20060;-66
2021/12/17 09:53:45;;;;;;;16.88;6.35;;;;;;;9.00;75.21;103385.25;5049043;28;20406;-66
2021/12/17 09:56:12;;;;;;;6.95;4.38;;;;;;;8.62;75.21;103387.94;5050730;28;20497;-66
2021/12/17 09:58:38;;;;;;;13.40;4.68;;;;;;;8.50;76.10;103378.38;5049881;28;20076;-67
2021/12/17 10:01:05;;;;;;;12.65;3.95;;;;;;;8.46;76.69;103376.63;5049479;28;20045;-66
2021/12/17 10:03:31;;;;;;;8.10;4.05;;;;;;;8.43;75.76;103381.84;5045243;28;20045;-66
2021/12/17 10:05:58;;;;;;;7.80;3.58;;;;;;;8.55;75.55;103384.47;5045815;28;20045;-67
2021/12/17 10:08:26;;;;;;;13.88;3.45;;;;;;;8.40;75.36;103371.41;5045416;28;20069;-66
2021/12/17 10:10:57;;;;;;;7.85;3.42;;;;;;;8.23;76.08;103379.25;5050945;28;20141;-66
2021/12/17 10:13:26;;;;;;;9.13;3.10;;;;;;;8.01;77.18;103380.09;5049993;28;20447;-66
2021/12/17 10:15:55;;;;;;;8.65;3.30;;;;;;;8.15;77.09;103382.72;5049384;28;20072;-66
2021/12/17 10:18:31;;;;;;;6.72;3.53;;;;;;;8.15;77.15;103385.31;5050747;28;20040;-66
2021/12/17 10:21:00;;;;;;;8.35;3.15;;;;;;;8.26;76.52;103373.13;5048750;28;20072;-66
2021/12/17 10:23:30;;;;;;;9.68;3.65;;;;;;;8.39;76.49;103372.28;5048845;28;20122;-66
2021/12/17 10:25:57;;;;;;;7.22;3.28;;;;;;;8.36;76.43;103363.56;5047128;28;20068;-66
2021/12/17 10:28:24;;;;;;;14.75;4.50;;;;;;;8.62;75.95;103367.00;5049417;28;20091;-66
2021/12/17 10:30:52;;;;;;;9.48;3.45;;;;;;;8.55;76.00;103367.91;5049217;28;20537;-66
2021/12/17 10:33:23;;;;;;;10.25;4.00;;;;;;;8.19;76.92;103360.94;5050781;28;20072;-66
2021/12/17 10:35:51;;;;;;;5.82;2.95;;;;;;;8.04;77.28;103374.00;5049596;28;20136;-66
2021/12/17 10:38:22;;;;;;;10.05;3.90;;;;;;;8.32;76.60;103357.47;5050779;28;20064;-66
2021/12/17 10:40:57;;;;;;;8.73;4.00;;;;;;;8.25;76.36;103353.97;5049713;28;20470;-67
2021/12/17 10:43:27;;;;;;;8.95;3.97;;;;;;;8.01;77.33;103346.13;5048157;28;20060;-67
2021/12/17 10:46:02;;;;;;;8.55;3.80;;;;;;;7.95;77.54;103350.47;5049139;28;20416;-66
2021/12/17 10:48:33;;;;;;;12.63;4.05;;;;;;;7.91;77.88;103349.59;5045276;28;20098;-66
2021/12/17 10:51:21;;;;;;;;;;;;;;;7.92;77.70;103343.50;5048065;28;20049;-67
2021/12/17 10:53:53;;;;;;;6.32;3.92;;;;;;;8.31;76.47;103355.75;5033956;28;20377;-66
2021/12/17 10:56:22;;;;;;;10.07;5.28;;;;;;;8.51;75.60;103353.97;5041741;28;20041;-66
2021/12/17 10:58:57;;;;;;;13.82;5.70;;;;;;;8.77;75.36;103346.06;5046103;28;20566;-66
2021/12/17 11:01:41;;;;;;;22.33;7.35;;;;;;;8.90;74.89;103339.06;5048853;28;20095;-66
2021/12/17 11:04:17;;;;;;;12.48;4.88;;;;;;;8.79;75.02;103342.56;5049134;28;20561;-66
2021/12/17 11:06:49;;;;;;;10.38;4.60;;;;;;;8.61;75.37;103339.16;5048165;28;20064;-66
2021/12/17 11:09:42;;;;;;;18.27;6.10;;;;;;;8.45;75.75;103337.41;5048461;28;20095;-65
2021/12/17 11:12:28;;;;;;;10.88;4.30;;;;;;;8.48;74.89;103334.78;5049309;28;20501;-66
2021/12/17 11:15:07;;;;;;;12.95;4.22;;;;;;;8.34;75.32;103329.59;5040738;28;20047;-66
2021/12/17 11:17:34;;;;;;;10.38;4.25;;;;;;;8.15;76.13;103318.25;5048292;28;20107;-66
2021/12/17 11:20:05;;;;;;;11.38;4.80;;;;;;;8.46;76.23;103319.09;5049482;28;20526;-66
2021/12/17 11:22:32;;;;;;;9.65;4.40;;;;;;;8.51;75.53;103313.88;5049819;28;20564;-66
2021/12/17 11:25:00;;;;;;;12.32;4.85;;;;;;;8.60;75.27;103321.69;5048866;28;20505;-66
2021/12/17 11:27:27;;;;;;;13.52;4.97;;;;;;;8.72;75.12;103324.28;5049246;28;20098;-66
2021/12/17 11:29:55;;;;;;;10.30;4.78;;;;;;;8.85;74.24;103332.94;5049207;28;20045;-66
2021/12/17 11:32:21;;;;;;;9.57;5.15;;;;;;;8.87;74.47;103339.06;5049541;28;20072;-66
2021/12/17 11:34:48;;;;;;;14.70;6.05;;;;;;;8.67;74.96;103342.59;5049677;28;20501;-66
2021/12/17 11:37:15;;;;;;;10.15;6.05;;;;;;;9.04;74.18;103339.88;5031883;28;20111;-66
2021/12/17 11:39:48;;;;;;;12.73;5.95;;;;;;;8.98;74.63;103327.66;5048326;28;20068;-66
2021/12/17 11:42:29;;;;;;;13.48;6.82;;;;;;;9.04;73.94;103324.16;5048143;28;20037;-66
2021/12/17 11:47:48;;;;;;;12.88;5.70;;;;;;;8.84;74.31;103329.47;5031523;28;20035;-65
2021/12/17 11:50:17;;;;;;;14.13;6.28;;;;;;;8.88;74.35;103327.69;5045595;28;20049;-66
2021/12/17 11:52:45;;;;;;;18.10;6.53;;;;;;;9.13;73.94;103324.09;5048460;28;20128;-66
2021/12/17 11:55:26;;;;;;;12.38;6.50;;;;;;;9.26;73.23;103329.28;5048377;28;20473;-67
2021/12/17 11:57:55;;;;;;;15.13;7.38;;;;;;;9.35;72.87;103322.28;5047882;28;20417;-66
2021/12/17 12:00:26;;;;;;;15.07;7.15;;;;;;;8.98;74.12;103332.91;5047474;28;20135;-66
2021/12/17 12:02:54;;;;;;;16.05;7.25;;;;;;;8.90;73.47;103325.97;5048771;28;20053;-66
2021/12/17 12:05:38;;;;;;;12.50;6.18;;;;;;;9.07;74.23;103325.03;5041232;28;20503;-67
2021/12/17 12:08:32;;;;;;;13.70;7.07;;;;;;;8.91;73.80;103327.69;5042797;28;20123;-66
2021/12/17 12:11:10;;;;;;;19.50;7.38;;;;;;;8.88;74.43;103325.09;5043944;28;20053;-66
2021/12/17 12:13:39;;;;;;;15.60;7.80;;;;;;;9.17;72.93;103320.59;5048402;28;20437;-66
2021/12/17 12:16:09;;;;;;;14.38;6.80;;;;;;;8.92;73.39;103332.06;5048359;28;20067;-66
2021/12/17 12:18:41;;;;;;;12.02;6.72;;;;;;;8.76;74.34;103323.38;5048425;28;20044;-66
2021/12/17 12:21:08;;;;;;;11.80;5.82;;;;;;;8.68;74.95;103323.41;5047855;28;20107;-66
2021/12/17 12:23:47;;;;;;;19.42;7.32;;;;;;;8.90;74.10;103332.09;5048376;28;20542;-66
2021/12/17 12:26:17;;;;;;;12.63;6.28;;;;;;;9.24;73.13;103330.16;5047927;28;20051;-66
2021/12/17 12:28:53;;;;;;;11.30;6.35;;;;;;;9.45;72.49;103321.34;5048014;28;20053;-66
2021/12/17 12:31:51;;;;;;;13.25;5.78;;;;;;;9.07;72.77;103322.41;5045745;28;20064;-66
2021/12/17 12:34:20;;;;;;;8.85;5.60;;;;;;;9.02;73.31;103325.91;5024882;28;20041;-66
2021/12/17 12:36:52;;;;;;;9.88;5.82;;;;;;;8.90;73.22;103321.63;5041796;28;20045;-66
2021/12/17 12:39:21;;;;;;;9.98;5.10;;;;;;;9.10;73.38;103319.75;5044971;28;20047;-66
2021/12/17 12:41:49;;;;;;;11.07;5.53;;;;;;;9.33;72.77;103319.66;5048376;28;20425;-66
2021/12/17 12:44:16;;;;;;;17.08;5.53;;;;;;;9.05;72.92;103324.16;5047434;28;20075;-67
2021/12/17 12:46:52;;;;;;;13.38;8.07;;;;;;;9.32;72.85;103319.66;5048150;28;20073;-67
2021/12/17 12:49:44;;;;;;;11.40;5.93;;;;;;;9.31;72.05;103320.56;5048183;28;20067;-67
2021/12/17 12:52:24;;;;;;;11.80;5.18;;;;;;;9.07;73.03;103316.28;5047574;28;20049;-67
2021/12/17 12:54:51;;;;;;;9.02;4.40;;;;;;;9.21;72.52;103314.47;5048463;28;20045;-67
2021/12/17 12:57:26;;;;;;;8.02;3.75;;;;;;;9.40;71.75;103317.88;5047209;28;20037;-67
2021/12/17 12:59:55;;;;;;;11.90;4.85;;;;;;;9.23;71.85;103315.34;5048088;28;20476;-67
2021/12/17 13:02:25;;;;;;;8.43;4.57;;;;;;;9.25;71.99;103321.44;5047585;28;20041;-67
2021/12/17 13:04:53;;;;;;;9.75;4.60;;;;;;;9.44;72.20;103315.22;5047284;28;20075;-67
2021/12/17 13:07:32;;;;;;;10.88;4.15;;;;;;;9.64;70.81;103302.88;5046493;28;20045;-66
2021/12/17 13:09:58;;;;;;;10.43;4.40;;;;;;;9.52;71.56;103296.84;5042848;28;20064;-66
2021/12/17 13:12:25;;;;;;;10.07;4.10;;;;;;;9.53;71.53;103294.22;5046906;28;20044;-66
2021/12/17 13:14:56;;;;;;;12.18;4.47;;;;;;;9.83;70.91;103293.09;5047937;28;20041;-66
2021/12/17 13:17:51;;;;;;;10.93;4.93;;;;;;;10.03;70.23;103288.56;5047326;28;20065;-66
2021/12/17 13:20:42;;;;;;;18.15;4.82;;;;;;;10.22;69.67;103286.69;5042792;28;20052;-66
2021/12/17 13:23:17;;;;;;;7.18;4.50;;;;;;;10.36;69.02;103287.41;5031511;28;20142;-67
2021/12/17 13:25:44;;;;;;;7.68;4.32;;;;;;;10.54;67.93;103297.69;5031006;28;20053;-67
2021/12/17 13:28:10;;;;;;;10.85;5.18;;;;;;;10.61;67.43;103296.75;5031607;28;20068;-67
2021/12/17 13:30:36;;;;;;;11.60;3.97;;;;;;;10.22;68.41;103298.03;5031867;28;20103;-66
2021/12/17 13:33:04;;;;;;;11.20;3.13;;;;;;;10.17;68.37;103298.97;5031159;28;20123;-66
2021/12/17 13:35:34;;;;;;;9.07;4.20;;;;;;;10.09;68.71;103303.34;5031722;28;20103;-66
2021/12/17 13:38:02;;;;;;;5.18;3.33;;;;;;;9.53;70.13;103299.47;5030023;28;20088;-66
2021/12/17 13:40:28;;;;;;;11.88;4.20;;;;;;;9.60;70.56;103305.53;5043538;28;20041;-66
2021/12/17 13:42:55;;;;;;;11.00;4.28;;;;;;;9.80;69.93;103314.09;5050185;28;20285;-66
2021/12/17 13:45:23;;;;;;;9.10;3.70;;;;;;;10.03;69.34;103301.69;5051451;28;20446;-66
2021/12/17 13:47:54;;;;;;;8.45;3.80;;;;;;;9.94;69.12;103301.75;5051891;28;20533;-66
2021/12/17 13:50:24;;;;;;;8.52;4.10;;;;;;;9.85;69.05;103303.59;5051303;28;20459;-66
2021/12/17 13:52:53;;;;;;;11.32;4.63;;;;;;;9.70;70.23;103313.31;5050781;28;20354;-66
2021/12/17 13:55:22;;;;;;;6.57;3.63;;;;;;;9.78;69.71;103311.50;5051338;28;20041;-66
2021/12/17 13:57:49;;;;;;;9.77;4.05;;;;;;;9.85;69.89;103301.84;5050905;28;20110;-66